createdAt,value
2018-03-03T00:01:33.794Z,-8.00
2018-03-03T00:04:00.039Z,-8.00
2018-03-03T00:06:26.353Z,-8.10
2018-03-03T00:08:52.529Z,-8.10
2018-03-03T00:11:18.672Z,-8.10
2018-03-03T00:13:45.418Z,-8.10
2018-03-03T00:16:11.591Z,-8.10
2018-03-03T00:18:37.873Z,-8.10
2018-03-03T00:21:04.781Z,-8.10
2018-03-03T00:23:31.142Z,-8.20
2018-03-03T00:25:57.310Z,-8.20
2018-03-03T00:28:24.227Z,-8.20
2018-03-03T00:30:54.432Z,-8.30
2018-03-03T00:33:20.537Z,-8.30
2018-03-03T00:35:46.650Z,-8.20
2018-03-03T00:38:12.791Z,-8.30
2018-03-03T00:40:38.892Z,-8.30
2018-03-03T00:43:05.098Z,-8.40
2018-03-03T00:45:31.987Z,-8.30
2018-03-03T00:47:58.213Z,-8.40
2018-03-03T00:50:24.898Z,-8.30
2018-03-03T00:52:50.988Z,-8.40
2018-03-03T00:55:17.105Z,-8.40
2018-03-03T00:57:44.123Z,-8.40
2018-03-03T01:00:10.323Z,-8.50
2018-03-03T01:02:37.066Z,-8.50
2018-03-03T01:05:04.035Z,-8.50
2018-03-03T01:07:47.182Z,-8.60
2018-03-03T01:10:13.724Z,-8.50
2018-03-03T01:12:39.853Z,-8.50
2018-03-03T01:15:06.721Z,-8.50
2018-03-03T01:17:32.854Z,-8.50
2018-03-03T01:20:00.505Z,-8.70
2018-03-03T01:22:26.615Z,-8.70
2018-03-03T01:24:52.765Z,-8.60
2018-03-03T01:27:18.890Z,-8.60
2018-03-03T01:29:45.234Z,-8.60
2018-03-03T01:32:11.537Z,-8.60
2018-03-03T01:34:37.702Z,-8.70
2018-03-03T01:37:03.867Z,-8.70
2018-03-03T01:39:32.845Z,-8.70
2018-03-03T01:41:58.990Z,-8.70
2018-03-03T01:44:25.099Z,-8.70
2018-03-03T01:46:51.255Z,-8.70
2018-03-03T01:49:17.380Z,-8.70
2018-03-03T01:51:43.511Z,-8.80
2018-03-03T01:54:09.660Z,-8.70
2018-03-03T01:56:35.794Z,-8.70
2018-03-03T01:59:01.940Z,-8.80
2018-03-03T02:01:28.841Z,-8.80
2018-03-03T02:03:55.699Z,-8.80
2018-03-03T02:06:21.932Z,-8.90
2018-03-03T02:08:48.069Z,-8.80
2018-03-03T02:11:14.180Z,-8.80
2018-03-03T02:13:40.290Z,-8.90
2018-03-03T02:16:07.139Z,-8.90
2018-03-03T02:18:33.447Z,-8.90
2018-03-03T02:20:59.588Z,-9.00
2018-03-03T02:23:26.146Z,-8.90
2018-03-03T02:25:52.253Z,-9.00
2018-03-03T02:28:18.388Z,-9.00
2018-03-03T02:30:44.543Z,-9.00
2018-03-03T02:33:10.672Z,-9.00
2018-03-03T02:35:36.819Z,-9.00
2018-03-03T02:38:02.975Z,-9.00
2018-03-03T02:40:29.151Z,-9.00
2018-03-03T02:42:55.298Z,-9.00
2018-03-03T02:45:21.408Z,-9.10
2018-03-03T02:47:48.317Z,-9.10
2018-03-03T02:50:14.401Z,-9.00
2018-03-03T02:52:40.791Z,-9.10
2018-03-03T02:55:07.785Z,-9.10
2018-03-03T02:57:33.980Z,-9.10
2018-03-03T03:00:00.110Z,-9.20
2018-03-03T03:02:26.221Z,-9.20
2018-03-03T03:04:52.316Z,-9.20
2018-03-03T03:07:18.428Z,-9.20
2018-03-03T03:09:44.649Z,-9.20
2018-03-03T03:12:10.800Z,-9.20
2018-03-03T03:14:36.916Z,-9.30
2018-03-03T03:17:03.040Z,-9.30
2018-03-03T03:19:29.166Z,-9.30
2018-03-03T03:21:55.291Z,-9.30
2018-03-03T03:24:21.412Z,-9.40
2018-03-03T03:26:47.528Z,-9.40
2018-03-03T03:29:13.645Z,-9.40
2018-03-03T03:31:39.867Z,-9.40
2018-03-03T03:34:06.124Z,-9.30
2018-03-03T03:36:33.109Z,-9.40
2018-03-03T03:38:59.500Z,-9.40
2018-03-03T03:41:25.794Z,-9.40
2018-03-03T03:43:53.066Z,-9.40
2018-03-03T03:46:19.215Z,-9.30
2018-03-03T03:48:45.301Z,-9.40
2018-03-03T03:51:12.452Z,-9.50
2018-03-03T03:53:38.645Z,-9.60
2018-03-03T03:56:04.822Z,-9.40
2018-03-03T03:58:30.995Z,-9.50
2018-03-03T04:00:57.860Z,-9.60
2018-03-03T04:03:23.959Z,-9.70
2018-03-03T04:05:50.135Z,-9.60
2018-03-03T04:08:16.318Z,-9.60
2018-03-03T04:10:42.458Z,-9.50
2018-03-03T04:13:08.689Z,-9.60
2018-03-03T04:15:34.916Z,-9.70
2018-03-03T04:18:01.296Z,-9.70
2018-03-03T04:20:27.463Z,-9.70
2018-03-03T04:22:53.558Z,-9.70
2018-03-03T04:25:19.676Z,-9.70
2018-03-03T04:27:45.809Z,-9.70
2018-03-03T04:30:13.284Z,-9.70
2018-03-03T04:32:39.428Z,-9.60
2018-03-03T04:35:05.652Z,-9.60
2018-03-03T04:37:31.849Z,-9.80
2018-03-03T04:39:57.999Z,-9.80
2018-03-03T04:42:27.015Z,-9.80
2018-03-03T04:44:53.184Z,-9.80
2018-03-03T04:47:19.422Z,-9.90
2018-03-03T04:49:45.580Z,-10.00
2018-03-03T04:52:11.760Z,-10.00
2018-03-03T04:54:38.643Z,-10.00
2018-03-03T04:57:04.772Z,-10.20
2018-03-03T05:02:36.715Z,-10.10
2018-03-03T05:08:11.740Z,-10.10
2018-03-03T05:10:38.307Z,-10.10
2018-03-03T05:13:20.051Z,-10.10
2018-03-03T05:19:17.940Z,-10.20
2018-03-03T05:21:50.255Z,-10.30
2018-03-03T05:24:22.607Z,-10.20
2018-03-03T05:26:54.790Z,-10.10
2018-03-03T05:29:27.044Z,-10.20
2018-03-03T05:31:57.071Z,-10.20
2018-03-03T05:34:29.961Z,-10.20
2018-03-03T05:37:02.095Z,-10.20
2018-03-03T05:39:31.386Z,-10.20
2018-03-03T05:42:03.688Z,-10.20
2018-03-03T05:44:36.154Z,-10.20
2018-03-03T05:47:09.151Z,-10.20
2018-03-03T05:52:56.967Z,-10.30
2018-03-03T05:55:29.227Z,-10.30
2018-03-03T05:58:02.506Z,-10.30
2018-03-03T06:00:35.056Z,-10.40
2018-03-03T06:03:21.260Z,-10.20
2018-03-03T06:06:03.227Z,-10.30
2018-03-03T06:08:36.169Z,-10.20
2018-03-03T06:11:02.394Z,-10.20
2018-03-03T06:13:28.564Z,-10.20
2018-03-03T06:15:54.843Z,-10.20
2018-03-03T06:18:20.949Z,-10.20
2018-03-03T06:20:47.090Z,-10.20
2018-03-03T06:23:13.215Z,-10.20
2018-03-03T06:25:39.310Z,-10.20
2018-03-03T06:28:05.735Z,-10.20
2018-03-03T06:30:32.647Z,-10.10
2018-03-03T06:32:58.822Z,-10.10
2018-03-03T06:35:24.920Z,-10.00
2018-03-03T06:37:51.060Z,-10.00
2018-03-03T06:40:17.168Z,-10.00
2018-03-03T06:42:43.319Z,-10.00
2018-03-03T06:45:09.444Z,-10.10
2018-03-03T06:47:35.573Z,-10.00
2018-03-03T06:50:02.597Z,-10.00
2018-03-03T06:52:28.746Z,-10.10
2018-03-03T06:54:54.867Z,-9.90
2018-03-03T06:57:21.151Z,-9.80
2018-03-03T06:59:47.415Z,-9.80
2018-03-03T07:02:13.531Z,-9.70
2018-03-03T07:04:43.255Z,-9.60
2018-03-03T07:07:10.122Z,-9.60
2018-03-03T07:09:36.250Z,-9.70
2018-03-03T07:12:03.106Z,-9.60
2018-03-03T07:14:29.474Z,-9.60
2018-03-03T07:16:55.688Z,-9.40
2018-03-03T07:19:22.649Z,-9.50
2018-03-03T07:31:41.063Z,-9.20
2018-03-03T07:34:07.167Z,-9.10
2018-03-03T07:36:34.045Z,-8.80
2018-03-03T07:39:00.204Z,-8.80
2018-03-03T07:41:26.364Z,-8.30
2018-03-03T07:43:52.513Z,-7.40
2018-03-03T08:06:12.174Z,-4.90
2018-03-03T08:11:06.996Z,-4.70
2018-03-03T08:13:33.875Z,-3.80
2018-03-03T08:15:59.985Z,-3.90
2018-03-03T08:18:26.109Z,-3.90
2018-03-03T08:20:52.325Z,-3.90
2018-03-03T08:23:18.496Z,-3.30
2018-03-03T08:25:45.345Z,-2.60
2018-03-03T08:28:12.951Z,-2.00
2018-03-03T08:55:20.673Z,-2.10
2018-03-03T09:12:34.964Z,-1.30
2018-03-03T09:15:01.096Z,-1.50
2018-03-03T09:17:28.134Z,-3.00
2018-03-03T09:19:54.343Z,-3.10
2018-03-03T09:22:20.520Z,-2.60
2018-03-03T09:24:46.686Z,-2.50
2018-03-03T09:27:12.878Z,-2.10
2018-03-03T09:29:39.026Z,-2.20
2018-03-03T09:32:05.169Z,-1.90
2018-03-03T09:34:31.357Z,-2.20
2018-03-03T09:36:58.235Z,-2.20
2018-03-03T09:39:24.332Z,-2.30
2018-03-03T09:51:42.081Z,-1.40
2018-03-03T09:54:08.173Z,0.60
2018-03-03T09:56:34.395Z,0.60
2018-03-03T09:59:00.592Z,0.60
2018-03-03T10:01:26.738Z,0.70
2018-03-03T10:03:52.952Z,0.80
2018-03-03T10:06:19.045Z,0.80
2018-03-03T10:08:45.974Z,0.40
2018-03-03T10:13:40.018Z,0.30
2018-03-03T10:16:06.858Z,0.10
2018-03-03T10:18:33.015Z,0.00
2018-03-03T10:20:59.909Z,0.10
2018-03-03T10:23:26.010Z,0.10
2018-03-03T10:25:52.891Z,0.70
2018-03-03T10:28:19.010Z,0.70
2018-03-03T10:30:45.168Z,0.60
2018-03-03T10:33:11.360Z,-0.10
2018-03-03T10:35:37.487Z,0.40
2018-03-03T10:38:03.608Z,0.80
2018-03-03T10:40:29.839Z,0.90
2018-03-03T10:42:56.050Z,0.60
2018-03-03T10:45:22.180Z,0.80
2018-03-03T10:47:49.096Z,0.50
2018-03-03T10:50:15.222Z,0.40
2018-03-03T10:52:41.374Z,0.10
2018-03-03T10:55:07.503Z,0.40
2018-03-03T11:00:02.711Z,0.80
2018-03-03T11:02:28.897Z,1.00
2018-03-03T11:04:55.053Z,0.80
2018-03-03T11:07:21.143Z,0.80
2018-03-03T11:09:47.241Z,0.40
2018-03-03T11:12:13.473Z,1.30
2018-03-03T11:14:39.592Z,1.10
2018-03-03T11:17:06.531Z,1.40
2018-03-03T11:19:32.670Z,1.30
2018-03-03T11:21:58.818Z,0.80
2018-03-03T11:24:24.982Z,0.80
2018-03-03T11:26:51.827Z,1.10
2018-03-03T11:29:19.100Z,1.10
2018-03-03T11:31:45.203Z,1.40
2018-03-03T11:34:11.432Z,2.20
2018-03-03T11:36:37.567Z,2.80
2018-03-03T11:39:04.190Z,2.00
2018-03-03T11:41:30.421Z,2.00
2018-03-03T11:46:24.906Z,1.90
2018-03-03T11:58:43.237Z,2.30
2018-03-03T12:03:37.281Z,2.20
2018-03-03T12:06:03.439Z,2.10
2018-03-03T12:08:29.676Z,2.30
2018-03-03T12:10:55.802Z,2.00
2018-03-03T12:13:21.944Z,2.60
2018-03-03T12:15:48.986Z,2.60
2018-03-03T12:18:15.093Z,2.10
2018-03-03T12:20:41.954Z,1.80
2018-03-03T12:23:08.178Z,1.80
2018-03-03T12:25:34.286Z,3.40
2018-03-03T12:28:00.507Z,2.80
2018-03-03T12:30:26.665Z,2.60
2018-03-03T12:32:52.801Z,2.30
2018-03-03T12:35:18.931Z,2.30
2018-03-03T12:37:45.020Z,2.50
2018-03-03T12:40:11.869Z,2.60
2018-03-03T12:42:38.023Z,2.60
2018-03-03T12:45:04.201Z,1.90
2018-03-03T12:47:31.233Z,3.20
2018-03-03T12:49:59.281Z,2.30
2018-03-03T12:52:25.398Z,2.30
2018-03-03T12:54:51.522Z,2.30
2018-03-03T12:57:17.656Z,3.70
2018-03-03T13:14:31.201Z,1.50
2018-03-03T13:19:25.435Z,2.20
2018-03-03T13:21:51.604Z,1.90
2018-03-03T13:24:17.745Z,2.00
2018-03-03T13:58:51.966Z,1.40
2018-03-03T14:01:18.102Z,0.90
2018-03-03T14:06:12.836Z,0.60
2018-03-03T14:08:39.873Z,0.50
2018-03-03T14:11:06.060Z,0.60
2018-03-03T14:13:32.179Z,0.50
2018-03-03T14:15:58.447Z,0.50
2018-03-03T14:18:24.609Z,0.70
2018-03-03T14:20:50.716Z,0.20
2018-03-03T14:23:16.880Z,0.10
2018-03-03T14:25:42.975Z,0.30
2018-03-03T14:28:09.076Z,0.30
2018-03-03T14:30:35.973Z,0.20
2018-03-03T14:33:02.154Z,0.10
2018-03-03T15:09:58.750Z,-1.00
2018-03-03T15:12:24.836Z,-1.30
2018-03-03T15:14:50.965Z,-1.30
2018-03-03T15:17:17.072Z,-1.30
2018-03-03T15:19:43.182Z,-1.30
2018-03-03T15:22:11.190Z,-1.40
2018-03-03T15:24:37.313Z,-1.50
2018-03-03T15:27:03.449Z,-1.50
2018-03-03T15:29:29.622Z,-1.70
2018-03-03T15:31:55.768Z,-1.70
2018-03-03T15:34:21.841Z,-1.60
2018-03-03T15:36:47.963Z,-1.60
2018-03-03T15:39:14.088Z,-1.80
2018-03-03T15:41:40.270Z,-1.90
2018-03-03T15:44:06.491Z,-1.90
2018-03-03T15:46:32.639Z,-1.90
2018-03-03T15:48:59.581Z,-1.90
2018-03-03T15:51:25.777Z,-1.90
2018-03-03T15:53:51.911Z,-1.80
2018-03-03T15:56:18.021Z,-1.90
2018-03-03T15:58:44.938Z,-2.10
2018-03-03T16:01:11.464Z,-2.10
2018-03-03T16:03:37.584Z,-2.10
2018-03-03T16:06:03.796Z,-2.20
2018-03-03T16:08:30.896Z,-2.10
2018-03-03T16:10:57.154Z,-2.20
2018-03-03T16:13:24.250Z,-2.20
2018-03-03T16:15:50.407Z,-2.20
2018-03-03T16:18:17.266Z,-2.20
2018-03-03T16:20:43.496Z,-2.30
2018-03-03T16:26:18.533Z,-2.30
2018-03-03T16:28:44.936Z,-2.40
2018-03-03T16:31:11.829Z,-2.40
2018-03-03T16:33:38.048Z,-2.50
2018-03-03T16:36:04.175Z,-2.50
2018-03-03T16:38:31.056Z,-2.50
2018-03-03T16:40:57.202Z,-2.60
2018-03-03T16:46:00.968Z,-2.60
2018-03-03T16:48:27.108Z,-2.50
2018-03-03T16:50:53.222Z,-2.60
2018-03-03T16:53:19.369Z,-2.70
2018-03-03T16:55:45.469Z,-2.70
2018-03-03T16:58:11.570Z,-2.70
2018-03-03T17:00:37.769Z,-2.80
2018-03-03T17:03:03.882Z,-2.80
2018-03-03T17:05:30.806Z,-2.80
2018-03-03T17:07:56.934Z,-2.90
2018-03-03T17:10:23.058Z,-2.90
2018-03-03T17:12:49.196Z,-2.90
2018-03-03T17:15:16.033Z,-2.90
2018-03-03T17:17:42.148Z,-3.00
2018-03-03T17:20:08.285Z,-2.90
2018-03-03T17:22:35.800Z,-3.00
2018-03-03T17:25:02.042Z,-3.10
2018-03-03T17:27:28.221Z,-3.00
2018-03-03T17:29:55.166Z,-3.10
2018-03-03T17:32:21.406Z,-3.10
2018-03-03T17:34:47.553Z,-3.10
2018-03-03T17:37:13.705Z,-3.10
2018-03-03T17:39:40.617Z,-3.20
2018-03-03T17:42:06.736Z,-3.20
2018-03-03T17:44:33.043Z,-3.20
2018-03-03T17:46:59.543Z,-3.30
2018-03-03T17:49:25.710Z,-3.30
2018-03-03T17:51:51.849Z,-3.20
2018-03-03T17:54:17.965Z,-3.30
2018-03-03T17:56:44.058Z,-3.30
2018-03-03T17:59:10.296Z,-3.30
2018-03-03T18:01:37.186Z,-3.40
2018-03-03T18:04:03.368Z,-3.50
2018-03-03T18:06:29.682Z,-3.40
2018-03-03T18:08:56.011Z,-3.40
2018-03-03T18:11:22.197Z,-3.30
2018-03-03T18:13:50.068Z,-3.40
2018-03-03T18:16:16.332Z,-3.50
2018-03-03T18:18:42.469Z,-3.50
2018-03-03T18:21:09.373Z,-3.50
2018-03-03T18:23:35.540Z,-3.50
2018-03-03T18:26:01.824Z,-3.50
2018-03-03T18:28:28.050Z,-3.50
2018-03-03T18:30:54.980Z,-3.60
2018-03-03T18:33:21.220Z,-3.60
2018-03-03T18:35:47.413Z,-3.60
2018-03-03T18:38:13.571Z,-3.60
2018-03-03T18:40:39.764Z,-3.70
2018-03-03T18:43:06.681Z,-3.70
2018-03-03T18:45:32.830Z,-3.70
2018-03-03T18:47:58.956Z,-3.80
2018-03-03T18:50:25.146Z,-3.80
2018-03-03T18:52:51.343Z,-3.80
2018-03-03T18:55:17.474Z,-3.80
2018-03-03T18:57:43.617Z,-3.90
2018-03-03T19:00:09.711Z,-3.90
2018-03-03T19:02:35.918Z,-3.90
2018-03-03T19:05:02.102Z,-3.90
2018-03-03T19:07:28.352Z,-4.00
2018-03-03T19:09:54.508Z,-4.00
2018-03-03T19:12:20.705Z,-4.10
2018-03-03T19:14:46.821Z,-4.10
2018-03-03T19:17:12.954Z,-4.10
2018-03-03T19:19:39.126Z,-4.20
2018-03-03T19:22:05.251Z,-4.20
2018-03-03T19:24:32.211Z,-4.30
2018-03-03T19:26:58.375Z,-4.40
2018-03-03T19:29:24.551Z,-4.30
2018-03-03T19:31:50.725Z,-4.40
2018-03-03T19:34:17.644Z,-4.40
2018-03-03T19:36:43.775Z,-4.50
2018-03-03T19:39:09.914Z,-4.40
2018-03-03T19:41:36.062Z,-4.40
2018-03-03T19:44:02.206Z,-4.40
2018-03-03T19:46:28.412Z,-4.60
2018-03-03T19:48:54.575Z,-4.50
2018-03-03T19:51:20.697Z,-4.50
2018-03-03T19:53:46.975Z,-4.50
2018-03-03T19:56:13.099Z,-4.50
2018-03-03T19:58:39.247Z,-4.60
2018-03-03T20:01:05.407Z,-4.60
2018-03-03T20:03:31.542Z,-4.60
2018-03-03T20:05:57.794Z,-4.70
2018-03-03T20:08:23.928Z,-4.70
2018-03-03T20:10:50.942Z,-4.70
2018-03-03T20:13:17.043Z,-4.80
2018-03-03T20:15:43.148Z,-4.70
2018-03-03T20:18:09.290Z,-4.70
2018-03-03T20:20:35.414Z,-4.90
2018-03-03T20:23:01.600Z,-4.90
2018-03-03T20:25:27.736Z,-4.90
2018-03-03T20:27:53.835Z,-4.90
2018-03-03T20:30:20.022Z,-4.90
2018-03-03T20:32:46.170Z,-4.90
2018-03-03T20:35:12.356Z,-4.90
2018-03-03T20:37:38.465Z,-5.00
2018-03-03T20:40:04.544Z,-5.10
2018-03-03T20:42:31.494Z,-5.10
2018-03-03T20:44:57.637Z,-5.10
2018-03-03T20:47:23.832Z,-5.10
2018-03-03T20:49:49.947Z,-5.10
2018-03-03T20:52:16.046Z,-5.10
2018-03-03T20:54:42.175Z,-5.20
2018-03-03T20:57:08.317Z,-5.20
2018-03-03T20:59:34.428Z,-5.20
2018-03-03T21:02:00.916Z,-5.20
2018-03-03T21:04:27.867Z,-5.20
2018-03-03T21:06:54.006Z,-5.30
2018-03-03T21:09:20.223Z,-5.20
2018-03-03T21:11:53.231Z,-5.30
2018-03-03T21:14:19.387Z,-5.30
2018-03-03T21:16:45.539Z,-5.30
2018-03-03T21:19:11.703Z,-5.30
2018-03-03T21:21:37.859Z,-5.40
2018-03-03T21:24:04.023Z,-5.40
2018-03-03T21:26:30.168Z,-5.40
2018-03-03T21:28:56.310Z,-5.40
2018-03-03T21:31:22.463Z,-5.40
2018-03-03T21:33:49.366Z,-5.40
2018-03-03T21:36:15.500Z,-5.50
2018-03-03T21:38:41.643Z,-5.50
2018-03-03T21:41:08.615Z,-5.50
2018-03-03T21:43:34.716Z,-5.50
2018-03-03T21:46:00.956Z,-5.50
2018-03-03T21:48:27.149Z,-5.50
2018-03-03T21:50:53.285Z,-5.50
2018-03-03T21:53:19.450Z,-5.50
2018-03-03T21:55:45.699Z,-5.50
2018-03-03T21:58:12.564Z,-5.60
2018-03-03T22:00:38.690Z,-5.70
2018-03-03T22:03:05.564Z,-5.60
2018-03-03T22:05:31.690Z,-5.70
2018-03-03T22:07:58.557Z,-5.60
2018-03-03T22:10:24.795Z,-5.70
2018-03-03T22:12:50.981Z,-5.60
2018-03-03T22:15:17.187Z,-5.70
2018-03-03T22:17:43.342Z,-5.70
2018-03-03T22:20:09.442Z,-5.60
2018-03-03T22:22:36.345Z,-5.60
2018-03-03T22:25:02.519Z,-5.70
2018-03-03T22:27:28.677Z,-5.60
2018-03-03T22:29:54.776Z,-5.60
2018-03-03T22:32:20.906Z,-5.60
2018-03-03T22:34:47.065Z,-5.60
2018-03-03T22:37:13.216Z,-5.60
2018-03-03T22:39:39.415Z,-5.60
2018-03-03T22:42:05.559Z,-5.50
2018-03-03T22:44:31.685Z,-5.50
2018-03-03T22:46:57.877Z,-5.50
2018-03-03T22:49:24.095Z,-5.50
2018-03-03T22:51:50.208Z,-5.50
2018-03-03T22:54:16.348Z,-5.50
2018-03-03T22:56:42.442Z,-5.60
2018-03-03T22:59:08.567Z,-5.60
2018-03-03T23:01:34.734Z,-5.60
2018-03-03T23:04:00.914Z,-5.60
2018-03-03T23:06:27.046Z,-5.70
2018-03-03T23:08:53.230Z,-5.60
2018-03-03T23:11:20.137Z,-5.70
2018-03-03T23:13:46.302Z,-5.70
2018-03-03T23:16:12.457Z,-5.70
2018-03-03T23:18:39.296Z,-5.80
2018-03-03T23:21:05.421Z,-5.90
2018-03-03T23:23:31.600Z,-5.80
2018-03-03T23:25:57.776Z,-5.80
2018-03-03T23:28:23.927Z,-5.90
2018-03-03T23:30:51.014Z,-5.90
2018-03-03T23:33:17.137Z,-5.90
2018-03-03T23:35:43.259Z,-5.90
2018-03-03T23:38:09.454Z,-5.90
2018-03-03T23:40:35.575Z,-6.00
2018-03-03T23:43:01.739Z,-5.90
2018-03-03T23:45:28.060Z,-5.90
2018-03-03T23:47:54.911Z,-5.90
2018-03-03T23:50:21.021Z,-5.90
2018-03-03T23:52:47.154Z,-5.80
2018-03-03T23:55:13.340Z,-5.90
2018-03-03T23:57:40.024Z,-5.90
